Time;durP1;ratioP1;P1;durP2;ratioP2;P2;SDS_P1;SDS_P2;PMS_P1;PMS_P2;Temp;Humidity;BMP_temperature;BMP_pressure;BME280_temperature;BME280_humidity;BME280_pressure;Samples;Min_cycle;Max_cycle;Signal;HPM_P1;HPM_P2
2024/04/21 00:00:10;0.00;0.00;0.62;0.00;0.00;0.62;2.67;2.07;;;22.60;20.30;;;;;;2048936;62;20464;-65
2024/04/21 00:02:55;0.00;0.00;0.62;0.00;0.00;0.62;2.40;1.60;;;22.60;20.30;;;;;;2049033;62;20481;-64
2024/04/21 00:05:40;0.00;0.00;0.62;0.00;0.00;0.62;3.20;2.00;;;22.60;20.30;;;;;;2050335;62;20462;-64
2024/04/21 00:08:27;0.00;0.00;0.62;0.00;0.00;0.62;2.60;1.70;;;22.60;20.30;;;;;;2054363;62;20474;-64
2024/04/21 00:11:12;0.00;0.00;0.62;0.00;0.00;0.62;2.67;1.70;;;22.60;20.30;;;;;;2054283;62;20462;-64
2024/04/21 00:13:56;0.00;0.00;0.62;0.00;0.00;0.62;2.67;1.80;;;22.60;20.30;;;;;;2053727;62;20922;-64
2024/04/21 00:16:41;0.00;0.00;0.62;0.00;0.00;0.62;2.23;1.60;;;22.60;20.30;;;;;;2054167;62;20513;-64
2024/04/21 00:19:26;0.00;0.00;0.62;0.00;0.00;0.62;2.90;2.00;;;22.50;20.20;;;;;;2054999;62;20904;-64
2024/04/21 00:22:11;0.00;0.00;0.62;0.00;0.00;0.62;2.87;1.90;;;22.60;20.30;;;;;;2054493;62;20471;-64
2024/04/21 00:24:58;0.00;0.00;0.62;0.00;0.00;0.62;2.40;1.73;;;22.50;20.20;;;;;;2054387;62;20454;-64
2024/04/21 00:27:42;0.00;0.00;0.62;0.00;0.00;0.62;2.03;1.57;;;22.50;20.20;;;;;;2054440;62;20495;-64
2024/04/21 00:30:27;0.00;0.00;0.62;0.00;0.00;0.62;2.00;1.40;;;22.50;20.20;;;;;;2050455;62;20520;-64
2024/04/21 00:33:12;0.00;0.00;0.62;0.00;0.00;0.62;1.70;1.30;;;22.50;20.20;;;;;;2054307;62;20872;-64
2024/04/21 00:35:57;0.00;0.00;0.62;0.00;0.00;0.62;2.83;1.47;;;22.50;20.20;;;;;;2054090;62;20500;-64
2024/04/21 00:38:41;0.00;0.00;0.62;0.00;0.00;0.62;2.13;1.70;;;22.50;20.20;;;;;;2054672;62;20458;-65
2024/04/21 00:41:28;0.00;0.00;0.62;0.00;0.00;0.62;2.10;1.50;;;22.50;20.20;;;;;;2054941;62;20481;-64
2024/04/21 00:44:13;0.00;0.00;0.62;0.00;0.00;0.62;2.10;1.60;;;22.50;20.20;;;;;;2052271;62;20926;-65
2024/04/21 00:46:58;0.00;0.00;0.62;0.00;0.00;0.62;2.17;1.47;;;22.50;20.20;;;;;;2054824;62;20470;-64
2024/04/21 00:49:44;0.00;0.00;0.62;0.00;0.00;0.62;2.10;1.43;;;22.50;20.20;;;;;;2054244;62;20582;-64
2024/04/21 00:52:29;0.00;0.00;0.62;0.00;0.00;0.62;2.27;1.57;;;22.50;20.30;;;;;;2054656;62;20873;-64
2024/04/21 00:55:14;0.00;0.00;0.62;0.00;0.00;0.62;2.33;1.50;;;22.50;20.30;;;;;;2054627;62;20462;-64
2024/04/21 00:58:03;0.00;0.00;0.62;0.00;0.00;0.62;2.20;1.40;;;22.50;20.30;;;;;;2054095;62;20475;-65
2024/04/21 01:00:48;0.00;0.00;0.62;0.00;0.00;0.62;2.03;1.27;;;22.50;20.30;;;;;;2054430;62;20543;-64
2024/04/21 01:03:35;0.00;0.00;0.62;0.00;0.00;0.62;1.73;1.17;;;22.50;20.30;;;;;;2056127;62;20456;-64
2024/04/21 01:06:19;0.00;0.00;0.62;0.00;0.00;0.62;2.07;1.23;;;22.50;20.30;;;;;;2055761;62;20525;-64
2024/04/21 01:09:04;0.00;0.00;0.62;0.00;0.00;0.62;3.63;1.20;;;22.40;20.20;;;;;;2055407;62;20468;-64
2024/04/21 01:11:50;0.00;0.00;0.62;0.00;0.00;0.62;2.13;1.37;;;22.40;20.20;;;;;;2055825;62;20491;-64
2024/04/21 01:14:37;0.00;0.00;0.62;0.00;0.00;0.62;2.03;1.40;;;22.40;20.20;;;;;;2056603;62;20546;-64
2024/04/21 01:17:22;0.00;0.00;0.62;0.00;0.00;0.62;1.40;1.00;;;22.40;20.20;;;;;;2057232;62;20471;-64
2024/04/21 01:20:10;0.00;0.00;0.62;0.00;0.00;0.62;1.70;1.20;;;22.40;20.30;;;;;;2057331;62;20475;-64
2024/04/21 01:22:58;0.00;0.00;0.62;0.00;0.00;0.62;1.97;1.00;;;22.40;20.30;;;;;;2058644;62;20488;-64
2024/04/21 01:25:43;0.00;0.00;0.62;0.00;0.00;0.62;2.30;1.20;;;22.40;20.20;;;;;;2059585;62;20458;-65
2024/04/21 01:28:27;0.00;0.00;0.62;0.00;0.00;0.62;2.27;1.10;;;22.40;20.20;;;;;;2056877;62;20470;-64
2024/04/21 01:31:12;0.00;0.00;0.62;0.00;0.00;0.62;2.23;1.10;;;22.40;20.20;;;;;;2054813;62;20470;-64
2024/04/21 01:33:57;0.00;0.00;0.62;0.00;0.00;0.62;2.07;1.17;;;22.40;20.80;;;;;;2053710;62;20540;-64
2024/04/21 01:36:41;0.00;0.00;0.62;0.00;0.00;0.62;1.83;1.10;;;22.40;20.20;;;;;;2054291;62;20930;-65
2024/04/21 01:39:29;0.00;0.00;0.62;0.00;0.00;0.62;1.50;1.00;;;22.30;20.10;;;;;;2054363;62;20471;-65
2024/04/21 01:42:13;0.00;0.00;0.62;0.00;0.00;0.62;2.30;1.13;;;22.30;20.20;;;;;;2050667;62;20856;-64
2024/04/21 01:44:58;0.00;0.00;0.62;0.00;0.00;0.62;3.30;1.57;;;22.30;20.10;;;;;;2054467;62;20467;-64
2024/04/21 01:47:43;0.00;0.00;0.62;0.00;0.00;0.62;1.90;1.00;;;22.30;20.10;;;;;;2054300;62;20955;-64
2024/04/21 01:50:27;0.00;0.00;0.62;0.00;0.00;0.62;2.13;1.50;;;22.30;20.20;;;;;;2052688;62;21099;-64
2024/04/21 01:53:12;0.00;0.00;0.62;0.00;0.00;0.62;2.60;1.63;;;22.30;20.10;;;;;;2053939;62;20487;-64
2024/04/21 01:55:59;0.00;0.00;0.62;0.00;0.00;0.62;4.13;1.00;;;22.30;20.20;;;;;;2054599;62;20486;-65
2024/04/21 01:58:44;0.00;0.00;0.62;0.00;0.00;0.62;1.40;0.90;;;22.30;20.20;;;;;;2053700;62;20475;-64
2024/04/21 02:01:28;0.00;0.00;0.62;0.00;0.00;0.62;1.80;0.97;;;22.30;20.20;;;;;;2054363;62;20467;-64
2024/04/21 02:04:13;0.00;0.00;0.62;0.00;0.00;0.62;1.73;1.00;;;22.20;20.10;;;;;;2054341;62;20477;-64
2024/04/21 02:06:58;0.00;0.00;0.62;0.00;0.00;0.62;1.50;0.90;;;22.20;20.10;;;;;;2054314;62;20517;-64
2024/04/21 02:09:42;0.00;0.00;0.62;0.00;0.00;0.62;1.60;0.90;;;22.20;20.20;;;;;;2054381;62;20465;-64
2024/04/21 02:12:30;0.00;0.00;0.62;0.00;0.00;0.62;1.73;1.07;;;22.20;20.20;;;;;;2053647;62;20478;-65
2024/04/21 02:15:15;0.00;0.00;0.62;0.00;0.00;0.62;1.67;1.10;;;22.20;20.80;;;;;;2054191;62;20865;-64
2024/04/21 02:17:59;0.00;0.00;0.62;0.00;0.00;0.62;1.70;0.90;;;22.30;20.30;;;;;;2050393;62;20447;-64
2024/04/21 02:20:44;0.00;0.00;0.62;0.00;0.00;0.62;1.57;1.03;;;22.20;20.20;;;;;;2052881;62;21074;-65
2024/04/21 02:23:29;0.00;0.00;0.62;0.00;0.00;0.62;1.73;1.20;;;22.20;20.20;;;;;;2054454;62;20572;-64
2024/04/21 02:26:13;0.00;0.00;0.62;0.00;0.00;0.62;1.67;1.10;;;22.20;20.70;;;;;;2054942;62;20471;-64
2024/04/21 02:29:00;0.00;0.00;0.62;0.00;0.00;0.62;2.73;1.00;;;22.20;20.20;;;;;;2049764;62;20540;-64
2024/04/21 02:31:45;0.00;0.00;0.62;0.00;0.00;0.62;1.87;1.00;;;22.20;20.30;;;;;;2054592;62;20470;-64
2024/04/21 02:34:30;0.00;0.00;0.62;0.00;0.00;0.62;1.73;0.90;;;22.20;20.30;;;;;;2053583;62;20532;-65
2024/04/21 02:37:15;0.00;0.00;0.62;0.00;0.00;0.62;1.53;0.90;;;22.20;20.80;;;;;;2053846;62;20492;-65
2024/04/21 02:40:00;0.00;0.00;0.62;0.00;0.00;0.62;1.80;1.30;;;22.20;20.30;;;;;;2049144;62;20460;-64
2024/04/21 02:42:44;0.00;0.00;0.62;0.00;0.00;0.62;1.50;0.90;;;22.20;20.30;;;;;;2050932;62;20536;-65
2024/04/21 02:45:32;0.00;0.00;0.62;0.00;0.00;0.62;1.90;1.37;;;22.20;20.20;;;;;;2054233;62;20481;-64
2024/04/21 02:48:16;0.00;0.00;0.62;0.00;0.00;0.62;2.00;1.00;;;22.10;20.10;;;;;;2054240;62;20466;-65
2024/04/21 02:51:01;0.00;0.00;0.62;0.00;0.00;0.62;1.80;1.00;;;22.10;20.10;;;;;;2053716;62;20927;-64
2024/04/21 02:53:45;0.00;0.00;0.62;0.00;0.00;0.62;2.40;0.97;;;22.10;20.10;;;;;;2054473;62;20482;-64
2024/04/21 02:56:30;0.00;0.00;0.62;0.00;0.00;0.62;1.50;0.83;;;22.10;20.20;;;;;;2053473;62;20450;-63
2024/04/21 02:59:15;0.00;0.00;0.62;0.00;0.00;0.62;1.87;1.00;;;22.10;20.20;;;;;;2054238;62;20462;-64
2024/04/21 03:02:02;0.00;0.00;0.62;0.00;0.00;0.62;1.60;0.80;;;22.10;20.20;;;;;;2054562;62;20540;-65
2024/04/21 03:04:47;0.00;0.00;0.62;0.00;0.00;0.62;1.53;0.90;;;22.10;20.20;;;;;;2053604;62;20475;-64
2024/04/21 03:07:32;0.00;0.00;0.62;0.00;0.00;0.62;1.60;1.00;;;22.10;20.20;;;;;;2054236;62;20459;-65
2024/04/21 03:10:16;0.00;0.00;0.62;0.00;0.00;0.62;1.50;0.97;;;22.00;20.10;;;;;;2054263;62;20501;-64
2024/04/21 03:13:01;0.00;0.00;0.62;0.00;0.00;0.62;1.60;0.80;;;22.00;20.10;;;;;;2053194;62;20533;-65
2024/04/21 03:15:48;0.00;0.00;0.62;0.00;0.00;0.62;1.50;1.00;;;22.00;20.20;;;;;;2054387;62;20510;-64
2024/04/21 03:18:36;0.00;0.00;0.62;0.00;0.00;0.62;1.80;1.00;;;22.00;20.10;;;;;;2054305;62;20451;-64
2024/04/21 03:21:21;0.00;0.00;0.62;0.00;0.00;0.62;2.60;0.83;;;22.00;20.10;;;;;;2048957;62;20465;-65
2024/04/21 03:24:06;0.00;0.00;0.62;0.00;0.00;0.62;2.10;1.23;;;22.00;20.10;;;;;;2049152;62;20484;-64
2024/04/21 03:26:50;0.00;0.00;0.62;0.00;0.00;0.62;1.90;0.90;;;22.00;20.20;;;;;;2050091;62;20505;-64
2024/04/21 03:29:35;0.00;0.00;0.62;0.00;0.00;0.62;1.50;1.00;;;22.00;20.10;;;;;;2054276;62;20445;-64
2024/04/21 03:32:20;0.00;0.00;0.62;0.00;0.00;0.62;1.60;1.00;;;22.00;20.10;;;;;;2054260;62;20467;-64
2024/04/21 03:35:08;0.00;0.00;0.62;0.00;0.00;0.62;1.60;1.03;;;21.90;20.10;;;;;;2052823;62;20466;-64
2024/04/21 03:37:53;0.00;0.00;0.62;0.00;0.00;0.62;1.70;0.90;;;21.90;20.10;;;;;;2047920;62;20470;-63
2024/04/21 03:40:41;0.00;0.00;0.62;0.00;0.00;0.62;1.63;1.10;;;21.90;20.10;;;;;;2047657;62;20506;-64
2024/04/21 03:43:27;0.00;0.00;0.62;0.00;0.00;0.62;3.40;1.10;;;21.90;20.10;;;;;;2049716;62;20453;-64
2024/04/21 03:46:12;0.00;0.00;0.62;0.00;0.00;0.62;1.90;1.13;;;21.90;20.10;;;;;;2052335;62;20475;-64
2024/04/21 03:48:56;0.00;0.00;0.62;0.00;0.00;0.62;1.90;1.00;;;21.90;20.10;;;;;;2051622;62;20478;-63
2024/04/21 03:51:43;0.00;0.00;0.62;0.00;0.00;0.62;1.80;1.20;;;21.90;20.10;;;;;;2051906;62;20489;-63
2024/04/21 03:54:28;0.00;0.00;0.62;0.00;0.00;0.62;1.80;1.20;;;21.90;20.10;;;;;;2050249;62;20468;-64
2024/04/21 03:57:13;0.00;0.00;0.62;0.00;0.00;0.62;1.70;1.10;;;21.90;20.10;;;;;;2052274;62;20856;-65
2024/04/21 03:59:58;0.00;0.00;0.62;0.00;0.00;0.62;1.80;1.03;;;21.90;20.10;;;;;;2054742;62;20502;-64
2024/04/21 04:02:42;0.00;0.00;0.62;0.00;0.00;0.62;2.07;1.40;;;21.90;20.10;;;;;;2054678;62;20474;-64
2024/04/21 04:05:27;0.00;0.00;0.62;0.00;0.00;0.62;2.50;1.60;;;21.90;20.10;;;;;;2054398;62;20466;-64
2024/04/21 04:08:14;0.00;0.00;0.62;0.00;0.00;0.62;1.63;1.03;;;21.90;20.10;;;;;;2054899;62;20476;-64
2024/04/21 04:10:59;0.00;0.00;0.62;0.00;0.00;0.62;1.93;1.27;;;21.90;20.10;;;;;;2049729;62;20471;-64
2024/04/21 04:13:45;0.00;0.00;0.62;0.00;0.00;0.62;1.80;1.30;;;21.90;20.10;;;;;;2054368;62;20528;-64
2024/04/21 04:16:30;0.00;0.00;0.62;0.00;0.00;0.62;1.93;1.10;;;21.80;20.00;;;;;;2054872;62;21004;-64
2024/04/21 04:19:14;0.00;0.00;0.62;0.00;0.00;0.62;1.50;0.93;;;21.80;20.00;;;;;;2053916;62;20478;-64
2024/04/21 04:21:59;0.00;0.00;0.62;0.00;0.00;0.62;2.20;1.40;;;21.80;20.00;;;;;;2054555;62;20451;-64
2024/04/21 04:24:46;0.00;0.00;0.62;0.00;0.00;0.62;1.70;1.30;;;21.80;20.00;;;;;;2054809;62;20866;-64
2024/04/21 04:27:31;0.00;0.00;0.62;0.00;0.00;0.62;1.83;1.30;;;21.80;20.00;;;;;;2054166;62;20544;-63
2024/04/21 04:30:16;0.00;0.00;0.62;0.00;0.00;0.62;2.23;1.43;;;21.80;20.00;;;;;;2054638;62;20493;-64
2024/04/21 04:33:01;0.00;0.00;0.62;0.00;0.00;0.62;1.80;1.10;;;21.80;20.00;;;;;;2053955;62;20700;-64
2024/04/21 04:35:47;0.00;0.00;0.62;0.00;0.00;0.62;2.53;1.57;;;21.80;20.00;;;;;;2054690;62;20511;-64
2024/04/21 04:38:32;0.00;0.00;0.62;0.00;0.00;0.62;1.77;1.20;;;21.80;20.00;;;;;;2054587;62;20462;-64
2024/04/21 04:41:19;0.00;0.00;0.62;0.00;0.00;0.62;1.90;1.27;;;21.80;20.00;;;;;;2053710;62;20498;-64
2024/04/21 04:44:03;0.00;0.00;0.62;0.00;0.00;0.62;2.67;1.60;;;21.70;19.90;;;;;;2054616;62;20532;-64
2024/04/21 04:46:48;0.00;0.00;0.62;0.00;0.00;0.62;2.00;1.30;;;21.70;19.90;;;;;;2054563;62;20470;-65
2024/04/21 04:49:33;0.00;0.00;0.62;0.00;0.00;0.62;2.30;1.60;;;21.70;19.90;;;;;;2055548;62;20477;-64
2024/04/21 04:52:18;0.00;0.00;0.62;0.00;0.00;0.62;1.70;1.20;;;21.70;19.90;;;;;;2059621;62;20465;-64
2024/04/21 04:55:03;0.00;0.00;0.62;0.00;0.00;0.62;1.80;1.23;;;21.70;20.50;;;;;;2058259;62;20498;-64
2024/04/21 04:57:50;0.00;0.00;0.62;0.00;0.00;0.62;2.83;1.70;;;21.70;19.90;;;;;;2054478;62;20515;-66
2024/04/21 05:00:35;0.00;0.00;0.62;0.00;0.00;0.62;2.20;1.60;;;21.70;19.90;;;;;;2054560;62;20467;-64
2024/04/21 05:03:19;0.00;0.00;0.62;0.00;0.00;0.62;2.17;1.40;;;21.70;19.90;;;;;;2053858;62;20479;-64
2024/04/21 05:06:04;0.00;0.00;0.62;0.00;0.00;0.62;2.07;1.50;;;21.70;19.90;;;;;;2054532;62;20493;-64
2024/04/21 05:08:49;0.00;0.00;0.62;0.00;0.00;0.62;2.53;1.90;;;21.70;19.90;;;;;;2054566;62;20498;-64
2024/04/21 05:11:34;0.00;0.00;0.62;0.00;0.00;0.62;2.73;1.60;;;21.70;19.90;;;;;;2053743;62;20532;-64
2024/04/21 05:14:21;0.00;0.00;0.62;0.00;0.00;0.62;1.83;1.10;;;21.70;19.90;;;;;;2054586;62;20536;-64
2024/04/21 05:17:06;0.00;0.00;0.62;0.00;0.00;0.62;1.83;1.50;;;21.70;19.90;;;;;;2053859;62;20470;-63
2024/04/21 05:19:51;0.00;0.00;0.62;0.00;0.00;0.62;1.80;1.30;;;21.60;19.90;;;;;;2052392;62;20504;-63
2024/04/21 05:22:36;0.00;0.00;0.62;0.00;0.00;0.62;2.70;1.50;;;21.70;19.90;;;;;;2054143;62;20470;-64
2024/04/21 05:25:20;0.00;0.00;0.62;0.00;0.00;0.62;2.90;1.80;;;21.70;19.90;;;;;;2053503;62;20454;-64
2024/04/21 05:28:05;0.00;0.00;0.62;0.00;0.00;0.62;2.13;1.73;;;21.60;19.90;;;;;;2054066;62;20453;-64
2024/04/21 05:30:53;0.00;0.00;0.62;0.00;0.00;0.62;1.93;1.67;;;21.60;19.90;;;;;;2054157;62;20458;-63
2024/04/21 05:33:37;0.00;0.00;0.62;0.00;0.00;0.62;2.37;1.50;;;21.60;19.80;;;;;;2047188;62;20480;-64
2024/04/21 05:36:22;0.00;0.00;0.62;0.00;0.00;0.62;1.80;1.33;;;21.70;19.80;;;;;;2052944;62;20512;-64
2024/04/21 05:39:07;0.00;0.00;0.62;0.00;0.00;0.62;2.00;1.70;;;21.70;19.80;;;;;;2054614;62;20543;-64
2024/04/21 05:41:52;0.00;0.00;0.62;0.00;0.00;0.62;2.37;1.30;;;21.60;19.70;;;;;;2049101;62;21060;-64
2024/04/21 05:44:36;0.00;0.00;0.62;0.00;0.00;0.62;2.20;1.40;;;21.60;19.70;;;;;;2049446;62;21061;-64
2024/04/21 05:47:24;0.00;0.00;0.62;0.00;0.00;0.62;2.33;1.47;;;21.60;19.70;;;;;;2050038;62;20470;-64
2024/04/21 05:50:08;0.00;0.00;0.62;0.00;0.00;0.62;2.30;1.47;;;21.60;19.70;;;;;;2054312;62;20838;-64
2024/04/21 05:52:53;0.00;0.00;0.62;0.00;0.00;0.62;1.90;1.50;;;21.60;19.60;;;;;;2053950;62;20555;-64
2024/04/21 05:55:38;0.00;0.00;0.62;0.00;0.00;0.62;2.77;2.00;;;21.60;19.60;;;;;;2053551;62;20509;-64
2024/04/21 05:58:23;0.00;0.00;0.62;0.00;0.00;0.62;2.00;1.40;;;21.60;19.60;;;;;;2054194;62;20479;-64
2024/04/21 06:01:07;0.00;0.00;0.62;0.00;0.00;0.62;2.20;1.77;;;21.60;19.60;;;;;;2054062;62;20517;-63
2024/04/21 06:03:55;0.00;0.00;0.62;0.00;0.00;0.62;2.70;1.73;;;21.60;19.60;;;;;;2053997;62;20466;-64
2024/04/21 06:06:39;0.00;0.00;0.62;0.00;0.00;0.62;2.27;1.83;;;21.60;19.60;;;;;;2054466;62;20482;-64
2024/04/21 06:09:24;0.00;0.00;0.62;0.00;0.00;0.62;2.13;1.63;;;21.60;20.10;;;;;;2053652;62;20478;-64
2024/04/21 06:12:09;0.00;0.00;0.62;0.00;0.00;0.62;2.30;1.90;;;21.60;19.50;;;;;;2054136;62;20470;-64
2024/04/21 06:14:53;0.00;0.00;0.62;0.00;0.00;0.62;2.33;1.70;;;21.60;19.40;;;;;;2054228;62;20459;-64
2024/04/21 06:17:38;0.00;0.00;0.62;0.00;0.00;0.62;2.50;2.03;;;21.60;19.40;;;;;;2052838;62;20474;-64
2024/04/21 06:20:25;0.00;0.00;0.62;0.00;0.00;0.62;2.40;1.87;;;21.60;19.50;;;;;;2054132;62;20467;-64
2024/04/21 06:23:10;0.00;0.00;0.62;0.00;0.00;0.62;1.93;1.73;;;21.60;19.50;;;;;;2054451;62;20524;-64
2024/04/21 06:25:55;0.00;0.00;0.62;0.00;0.00;0.62;2.70;1.80;;;21.60;19.50;;;;;;2053469;62;21128;-65
2024/04/21 06:28:39;0.00;0.00;0.62;0.00;0.00;0.62;2.37;2.07;;;21.50;19.40;;;;;;2054650;62;20489;-63
2024/04/21 06:31:24;0.00;0.00;0.62;0.00;0.00;0.62;2.90;2.50;;;21.50;19.40;;;;;;2052826;62;21239;-64
2024/04/21 06:34:09;0.00;0.00;0.62;0.00;0.00;0.62;3.10;2.10;;;21.50;19.40;;;;;;2053606;62;20490;-64
2024/04/21 06:36:57;0.00;0.00;0.62;0.00;0.00;0.62;2.60;2.10;;;21.50;19.40;;;;;;2054292;62;20455;-64
2024/04/21 06:39:42;0.00;0.00;0.62;0.00;0.00;0.62;5.10;2.33;;;21.50;19.30;;;;;;2053722;62;20501;-64
2024/04/21 06:42:26;0.00;0.00;0.62;0.00;0.00;0.62;1.87;1.60;;;21.50;19.30;;;;;;2054185;62;20490;-64
2024/04/21 06:45:11;0.00;0.00;0.62;0.00;0.00;0.62;2.80;2.20;;;21.50;19.30;;;;;;2054595;62;20505;-65
2024/04/21 06:47:56;0.00;0.00;0.62;0.00;0.00;0.62;2.80;2.10;;;21.50;19.20;;;;;;2053443;62;20540;-64
2024/04/21 06:50:42;0.00;0.00;0.62;0.00;0.00;0.62;3.17;1.90;;;21.50;19.20;;;;;;2054325;62;20908;-64
2024/04/21 06:53:30;0.00;0.00;0.62;0.00;0.00;0.62;3.30;2.10;;;21.50;19.20;;;;;;2052571;62;20545;-64
2024/04/21 06:56:15;0.00;0.00;0.62;0.00;0.00;0.62;2.87;2.30;;;21.50;19.20;;;;;;2052239;62;20475;-64
2024/04/21 06:58:59;0.00;0.00;0.62;0.00;0.00;0.62;2.80;1.83;;;21.50;19.20;;;;;;2054199;62;20463;-65
2024/04/21 07:01:44;0.00;0.00;0.62;0.00;0.00;0.62;2.93;2.13;;;21.50;19.20;;;;;;2053525;62;20532;-63
2024/04/21 07:04:29;0.00;0.00;0.62;0.00;0.00;0.62;2.70;2.10;;;21.50;19.30;;;;;;2054092;62;20497;-64
2024/04/21 07:07:14;0.00;0.00;0.62;0.00;0.00;0.62;2.23;2.03;;;21.50;19.30;;;;;;2054519;62;20445;-64
2024/04/21 07:10:01;0.00;0.00;0.62;0.00;0.00;0.62;2.57;1.70;;;21.50;19.30;;;;;;2053528;62;20529;-63
2024/04/21 07:12:46;0.00;0.00;0.62;0.00;0.00;0.62;2.50;2.00;;;21.50;19.30;;;;;;2053945;62;20558;-64
2024/04/21 07:15:31;0.00;0.00;0.62;0.00;0.00;0.62;3.30;2.30;;;21.50;19.30;;;;;;2053281;62;20462;-63
2024/04/21 07:18:15;0.00;0.00;0.62;0.00;0.00;0.62;3.97;1.90;;;21.50;19.30;;;;;;2054274;62;20867;-64
2024/04/21 07:21:01;0.00;0.00;0.62;0.00;0.00;0.62;3.27;2.27;;;21.40;19.20;;;;;;2054147;62;20467;-64
2024/04/21 07:23:45;0.00;0.00;0.62;0.00;0.00;0.62;2.20;1.77;;;21.50;19.30;;;;;;2053539;62;20471;-65
2024/04/21 07:26:33;0.00;0.00;0.62;0.00;0.00;0.62;2.17;1.93;;;21.40;19.20;;;;;;2054127;62;20467;-65
2024/04/21 07:29:17;0.00;0.00;0.62;0.00;0.00;0.62;2.63;2.10;;;21.40;19.20;;;;;;2054246;62;20517;-64
2024/04/21 07:32:03;0.00;0.00;0.62;0.00;0.00;0.62;2.70;2.10;;;21.40;19.30;;;;;;2053320;62;20906;-65
2024/04/21 07:34:48;0.00;0.00;0.62;0.00;0.00;0.62;2.90;2.00;;;21.40;19.30;;;;;;2053352;62;20468;-64
2024/04/21 07:37:33;0.00;0.00;0.62;0.00;0.00;0.62;2.73;2.03;;;21.40;19.30;;;;;;2053950;62;20463;-64
2024/04/21 07:40:17;0.00;0.00;0.62;0.00;0.00;0.62;3.13;1.73;;;21.40;19.30;;;;;;2046761;62;20466;-64
2024/04/21 07:43:05;0.00;0.00;0.62;0.00;0.00;0.62;2.40;1.90;;;21.40;19.30;;;;;;2045166;62;20922;-65
2024/04/21 07:45:50;0.00;0.00;0.62;0.00;0.00;0.62;2.60;1.93;;;21.40;19.30;;;;;;2050009;62;20470;-64
2024/04/21 07:48:35;0.00;0.00;0.62;0.00;0.00;0.62;2.50;2.23;;;21.40;19.30;;;;;;2053965;62;20460;-64
2024/04/21 07:51:20;0.00;0.00;0.62;0.00;0.00;0.62;4.60;2.37;;;21.40;19.30;;;;;;2054403;62;20598;-64
2024/04/21 07:54:06;0.00;0.00;0.62;0.00;0.00;0.62;2.83;2.20;;;21.40;19.20;;;;;;2054177;62;20463;-65
2024/04/21 07:56:50;0.00;0.00;0.62;0.00;0.00;0.62;2.87;2.30;;;21.40;19.20;;;;;;2054948;62;20587;-64
2024/04/21 07:59:38;0.00;0.00;0.62;0.00;0.00;0.62;3.07;2.60;;;21.40;19.20;;;;;;2055673;62;20516;-64
2024/04/21 08:02:23;0.00;0.00;0.62;0.00;0.00;0.62;3.10;2.60;;;21.40;19.10;;;;;;2050933;62;20460;-64
2024/04/21 08:05:08;0.00;0.00;0.62;0.00;0.00;0.62;3.37;2.43;;;21.40;19.00;;;;;;2051339;62;20522;-64
2024/04/21 08:07:52;0.00;0.00;0.62;0.00;0.00;0.62;3.13;2.40;;;21.40;19.00;;;;;;2051952;62;20479;-64
2024/04/21 08:10:37;0.00;0.00;0.62;0.00;0.00;0.62;4.30;2.83;;;21.40;18.90;;;;;;2057156;62;20462;-64
2024/04/21 08:13:21;0.00;0.00;0.62;0.00;0.00;0.62;2.80;2.43;;;21.40;18.80;;;;;;2058432;62;20511;-64
2024/04/21 08:16:09;0.00;0.00;0.62;0.00;0.00;0.62;3.83;2.67;;;21.40;18.80;;;;;;2057711;62;20478;-64
2024/04/21 08:18:53;0.00;0.00;0.62;0.00;0.00;0.62;2.97;2.40;;;21.40;18.70;;;;;;2058781;62;20509;-64
2024/04/21 08:21:38;0.00;0.00;0.62;0.00;0.00;0.62;3.30;2.70;;;21.40;18.60;;;;;;2055672;62;20458;-64
2024/04/21 08:24:23;0.00;0.00;0.62;0.00;0.00;0.62;3.20;2.60;;;21.40;18.50;;;;;;2057417;62;20901;-64
2024/04/21 08:27:07;0.00;0.00;0.62;0.00;0.00;0.62;3.03;2.30;;;21.40;18.50;;;;;;2057447;62;20454;-64
2024/04/21 08:29:52;0.00;0.00;0.62;0.00;0.00;0.62;3.20;2.27;;;21.40;18.40;;;;;;2056634;62;20529;-64
2024/04/21 08:32:39;0.00;0.00;0.62;0.00;0.00;0.62;3.60;2.10;;;21.40;18.40;;;;;;2056982;62;20507;-64
2024/04/21 08:35:24;0.00;0.00;0.62;0.00;0.00;0.62;2.47;2.17;;;21.40;18.30;;;;;;2056105;62;20525;-64
2024/04/21 08:38:08;0.00;0.00;0.62;0.00;0.00;0.62;3.13;2.43;;;21.30;18.10;;;;;;2054720;62;20971;-64
2024/04/21 08:40:54;0.00;0.00;0.62;0.00;0.00;0.62;2.23;2.03;;;21.40;18.10;;;;;;2051144;62;20500;-64
2024/04/21 08:43:39;0.00;0.00;0.62;0.00;0.00;0.62;3.10;2.67;;;21.30;18.00;;;;;;2055736;62;20482;-65
2024/04/21 08:46:25;0.00;0.00;0.62;0.00;0.00;0.62;3.20;2.07;;;21.30;18.00;;;;;;2054299;62;20467;-64
2024/04/21 08:49:15;0.00;0.00;0.62;0.00;0.00;0.62;2.30;2.10;;;21.40;18.00;;;;;;2054657;62;21038;-64
2024/04/21 08:52:01;0.00;0.00;0.62;0.00;0.00;0.62;3.30;2.13;;;21.40;18.00;;;;;;2053602;62;21109;-64
2024/04/21 08:54:45;0.00;0.00;0.62;0.00;0.00;0.62;2.90;2.17;;;21.40;18.00;;;;;;2054085;62;20463;-64
2024/04/21 08:57:31;0.00;0.00;0.62;0.00;0.00;0.62;3.13;2.10;;;21.30;17.90;;;;;;2054493;62;20525;-64
2024/04/21 09:00:19;0.00;0.00;0.62;0.00;0.00;0.62;2.40;2.07;;;21.40;17.90;;;;;;2053778;62;20872;-64
2024/04/21 09:03:05;0.00;0.00;0.62;0.00;0.00;0.62;2.43;1.60;;;21.30;18.30;;;;;;2054253;62;20521;-64
2024/04/21 09:05:56;0.00;0.00;0.62;0.00;0.00;0.62;2.87;1.60;;;21.30;17.60;;;;;;2054603;62;20480;-64
2024/04/21 09:08:40;0.00;0.00;0.62;0.00;0.00;0.62;5.33;1.80;;;21.30;17.50;;;;;;2053609;62;21103;-64
2024/04/21 09:11:28;0.00;0.00;0.62;0.00;0.00;0.62;3.13;2.07;;;21.30;17.40;;;;;;2054056;62;20523;-64
2024/04/21 09:14:12;0.00;0.00;0.62;0.00;0.00;0.62;2.63;1.80;;;21.30;17.40;;;;;;2052896;62;20467;-63
2024/04/21 09:16:57;0.00;0.00;0.62;0.00;0.00;0.62;2.40;1.80;;;21.30;17.30;;;;;;2053933;62;20520;-65
2024/04/21 09:19:42;0.00;0.00;0.62;0.00;0.00;0.62;2.20;2.00;;;21.30;17.30;;;;;;2054149;62;20497;-64
2024/04/21 09:22:30;0.00;0.00;0.62;0.00;0.00;0.62;2.77;1.70;;;21.30;17.20;;;;;;2053616;62;20470;-64
2024/04/21 09:25:17;0.00;0.00;0.62;0.00;0.00;0.62;2.67;1.80;;;21.30;17.00;;;;;;2052263;62;20475;-64
2024/04/21 09:28:02;0.00;0.00;0.62;0.00;0.00;0.62;2.30;2.10;;;21.30;16.90;;;;;;2054071;62;20520;-64
2024/04/21 09:30:46;0.00;0.00;0.62;0.00;0.00;0.62;2.30;1.80;;;21.30;16.80;;;;;;2053427;62;20500;-64
2024/04/21 09:33:32;0.00;0.00;0.62;0.00;0.00;0.62;1.93;1.57;;;21.30;16.80;;;;;;2054419;62;20479;-64
2024/04/21 09:36:17;0.00;0.00;0.62;0.00;0.00;0.62;2.13;1.50;;;21.30;16.60;;;;;;2053616;62;20521;-64
2024/04/21 09:39:05;0.00;0.00;0.62;0.00;0.00;0.62;2.20;1.60;;;21.20;16.60;;;;;;2053920;62;20534;-64
2024/04/21 09:41:54;0.00;0.00;0.62;0.00;0.00;0.62;1.90;1.43;;;21.30;16.70;;;;;;2053968;62;21061;-64
2024/04/21 09:44:40;0.00;0.00;0.62;0.00;0.00;0.62;2.47;1.70;;;21.30;16.60;;;;;;2053201;62;21032;-64
2024/04/21 09:47:25;0.00;0.00;0.62;0.00;0.00;0.62;2.57;1.93;;;21.20;16.60;;;;;;2054011;62;20457;-64
2024/04/21 09:50:12;0.00;0.00;0.62;0.00;0.00;0.62;3.33;1.70;;;21.20;16.50;;;;;;2054176;62;20884;-64
2024/04/21 09:52:57;0.00;0.00;0.62;0.00;0.00;0.62;2.70;1.73;;;21.20;16.60;;;;;;2053313;62;20489;-64
2024/04/21 09:55:47;0.00;0.00;0.62;0.00;0.00;0.62;2.53;2.00;;;21.20;16.60;;;;;;2054492;62;20475;-64
2024/04/21 09:58:36;0.00;0.00;0.62;0.00;0.00;0.62;3.10;2.20;;;21.20;16.60;;;;;;2053307;62;20460;-63
2024/04/21 10:01:28;0.00;0.00;0.62;0.00;0.00;0.62;2.80;1.87;;;21.20;16.50;;;;;;2053792;62;20524;-64
2024/04/21 10:04:19;0.00;0.00;0.62;0.00;0.00;0.62;3.00;1.90;;;21.20;16.30;;;;;;2054273;62;20937;-64
2024/04/21 10:07:04;0.00;0.00;0.62;0.00;0.00;0.62;3.70;1.90;;;21.20;16.20;;;;;;2053385;62;20526;-64
2024/04/21 10:09:51;0.00;0.00;0.62;0.00;0.00;0.62;2.20;1.73;;;21.20;16.20;;;;;;2054046;62;20466;-64
2024/04/21 10:12:39;0.00;0.00;0.62;0.00;0.00;0.62;2.33;1.87;;;21.20;16.20;;;;;;2054584;62;20505;-64
2024/04/21 10:15:25;0.00;0.00;0.62;0.00;0.00;0.62;2.17;1.67;;;21.20;16.20;;;;;;2053695;62;20552;-64
2024/04/21 10:18:20;0.00;0.00;0.62;0.00;0.00;0.62;1.97;1.50;;;21.20;16.10;;;;;;2054324;62;20518;-64
2024/04/21 10:21:05;0.00;0.00;0.62;0.00;0.00;0.62;4.13;1.63;;;21.20;16.00;;;;;;2053699;62;20503;-64
2024/04/21 10:23:50;0.00;0.00;0.62;0.00;0.00;0.62;2.43;1.60;;;21.20;15.90;;;;;;2053998;62;20455;-65
2024/04/21 10:26:34;0.00;0.00;0.62;0.00;0.00;0.62;2.33;1.87;;;21.10;15.80;;;;;;2054008;62;20979;-64
2024/04/21 10:29:29;0.00;0.00;0.62;0.00;0.00;0.62;2.53;1.80;;;21.20;15.80;;;;;;2053417;62;20467;-64
2024/04/21 10:32:17;0.00;0.00;0.62;0.00;0.00;0.62;2.37;1.77;;;21.10;15.80;;;;;;2054124;62;20463;-64
2024/04/21 10:35:01;0.00;0.00;0.62;0.00;0.00;0.62;2.73;2.03;;;21.10;15.60;;;;;;2053696;62;20466;-64
2024/04/21 10:37:46;0.00;0.00;0.62;0.00;0.00;0.62;2.40;1.60;;;21.10;15.70;;;;;;2054240;62;20530;-64
2024/04/21 10:40:31;0.00;0.00;0.62;0.00;0.00;0.62;2.33;1.90;;;21.10;15.70;;;;;;2053948;62;20458;-64
2024/04/21 10:43:24;0.00;0.00;0.62;0.00;0.00;0.62;2.30;1.70;;;21.10;15.90;;;;;;2053580;62;21109;-64
2024/04/21 10:46:12;0.00;0.00;0.62;0.00;0.00;0.62;2.57;1.80;;;21.10;15.90;;;;;;2053944;62;20525;-63
2024/04/21 10:48:56;0.00;0.00;0.62;0.00;0.00;0.62;2.50;1.80;;;21.10;16.00;;;;;;2054227;62;20502;-64
2024/04/21 10:51:41;0.00;0.00;0.62;0.00;0.00;0.62;2.87;1.73;;;21.10;16.00;;;;;;2053303;62;21027;-64